createdAt,value
2017-11-20T00:00:18.412Z,75.17
2017-11-20T00:02:47.231Z,76.21
2017-11-20T00:05:16.312Z,76.16
2017-11-20T00:07:45.252Z,74.72
2017-11-20T00:10:14.075Z,74.06
2017-11-20T00:12:42.902Z,72.90
2017-11-20T00:15:11.763Z,74.47
2017-11-20T00:17:40.433Z,75.40
2017-11-20T00:20:09.213Z,74.96
2017-11-20T00:22:38.184Z,76.89
2017-11-20T00:25:07.040Z,75.62
2017-11-20T00:27:36.693Z,75.56
2017-11-20T00:30:05.722Z,75.99
2017-11-20T00:32:34.592Z,76.23
2017-11-20T00:35:03.564Z,75.82
2017-11-20T00:37:32.331Z,76.61
2017-11-20T00:40:01.189Z,75.84
2017-11-20T00:42:31.214Z,77.07
2017-11-20T00:45:00.067Z,75.76
2017-11-20T00:47:28.813Z,76.80
2017-11-20T00:49:57.621Z,76.82
2017-11-20T00:52:26.365Z,75.89
2017-11-20T00:54:55.184Z,75.67
2017-11-20T00:57:23.907Z,76.16
2017-11-20T00:59:52.547Z,76.37
2017-11-20T01:02:21.377Z,75.04
2017-11-20T01:04:50.174Z,75.69
2017-11-20T01:07:19.467Z,75.96
2017-11-20T01:09:48.241Z,75.85
2017-11-20T01:12:17.282Z,75.45
2017-11-20T01:14:46.185Z,75.86
2017-11-20T01:17:15.135Z,76.05
2017-11-20T01:19:43.936Z,76.96
2017-11-20T01:22:12.855Z,76.59
2017-11-20T01:24:41.591Z,76.45
2017-11-20T01:27:11.274Z,77.35
2017-11-20T01:29:40.004Z,76.92
2017-11-20T01:32:09.673Z,77.08
2017-11-20T01:34:39.250Z,77.40
2017-11-20T01:37:08.099Z,76.62
2017-11-20T01:39:36.799Z,77.37
2017-11-20T01:42:05.597Z,77.48
2017-11-20T01:44:35.649Z,76.67
2017-11-20T01:47:04.698Z,78.80
2017-11-20T01:49:34.860Z,78.90
2017-11-20T01:52:04.872Z,79.23
2017-11-20T01:54:33.523Z,78.56
2017-11-20T01:57:02.626Z,77.22
2017-11-20T01:59:31.550Z,76.06
2017-11-20T02:02:00.571Z,76.03
2017-11-20T02:04:29.388Z,76.91
2017-11-20T02:06:58.217Z,77.49
2017-11-20T02:09:27.170Z,77.26
2017-11-20T02:11:56.552Z,76.42
2017-11-20T02:14:25.361Z,77.75
2017-11-20T02:16:54.227Z,77.45
2017-11-20T02:19:23.718Z,76.64
2017-11-20T02:21:52.630Z,77.44
2017-11-20T02:24:21.581Z,76.46
2017-11-20T02:26:50.400Z,78.13
2017-11-20T02:29:19.288Z,79.97
2017-11-20T02:31:49.368Z,80.68
2017-11-20T02:34:18.125Z,80.13
2017-11-20T02:36:46.783Z,79.38
2017-11-20T02:39:15.561Z,79.23
2017-11-20T02:41:45.239Z,78.79
2017-11-20T02:44:14.017Z,79.07
2017-11-20T02:46:43.000Z,78.53
2017-11-20T02:49:11.848Z,77.20
2017-11-20T02:51:41.297Z,78.25
2017-11-20T02:54:10.199Z,78.78
2017-11-20T02:56:38.940Z,78.21
2017-11-20T02:59:07.883Z,77.79
2017-11-20T03:01:36.917Z,79.72
2017-11-20T03:04:05.905Z,77.52
2017-11-20T03:06:35.707Z,76.95
2017-11-20T03:09:06.171Z,76.50
2017-11-20T03:11:35.937Z,76.22
2017-11-20T03:14:05.826Z,76.12
2017-11-20T03:16:34.562Z,76.59
2017-11-20T03:19:03.357Z,77.38
2017-11-20T03:21:32.156Z,76.63
2017-11-20T03:24:00.945Z,75.80
2017-11-20T03:26:29.796Z,75.45
2017-11-20T03:28:58.755Z,75.63
2017-11-20T03:31:27.817Z,75.66
2017-11-20T03:33:56.523Z,76.05
2017-11-20T03:36:26.279Z,75.30
2017-11-20T03:38:55.356Z,75.15
2017-11-20T03:41:24.898Z,74.54
2017-11-20T03:43:53.603Z,74.62
2017-11-20T03:46:22.445Z,75.21
2017-11-20T03:48:51.278Z,76.27
2017-11-20T03:51:20.190Z,76.53
2017-11-20T03:53:48.979Z,75.64
2017-11-20T03:56:17.781Z,75.48
2017-11-20T03:58:46.485Z,75.08
2017-11-20T04:01:15.221Z,77.19
2017-11-20T04:03:44.040Z,75.21
2017-11-20T04:06:13.801Z,73.53
2017-11-20T04:08:43.325Z,73.04
2017-11-20T04:11:12.135Z,69.95
2017-11-20T04:13:40.837Z,69.01
2017-11-20T04:16:10.352Z,68.48
2017-11-20T04:18:40.102Z,68.45
2017-11-20T04:21:08.912Z,68.26
2017-11-20T04:23:37.895Z,67.49
2017-11-20T04:26:06.908Z,67.47
2017-11-20T04:28:35.621Z,67.11
2017-11-20T04:31:04.336Z,67.32
2017-11-20T04:33:33.422Z,67.28
2017-11-20T04:36:02.245Z,66.92
2017-11-20T04:38:31.014Z,66.31
2017-11-20T04:41:00.585Z,66.43
2017-11-20T04:43:30.078Z,65.93
2017-11-20T04:45:58.952Z,65.52
2017-11-20T04:48:28.597Z,64.83
2017-11-20T04:50:57.628Z,65.90
2017-11-20T04:53:27.885Z,64.92
2017-11-20T04:55:56.634Z,65.03
2017-11-20T04:58:25.493Z,63.98
2017-11-20T05:00:54.160Z,63.69
2017-11-20T05:03:23.185Z,64.17
2017-11-20T05:05:52.631Z,63.42
2017-11-20T05:08:22.077Z,63.07
2017-11-20T05:10:50.733Z,63.92
2017-11-20T05:13:30.129Z,63.85
2017-11-20T05:15:58.924Z,63.61
2017-11-20T05:18:27.750Z,63.41
2017-11-20T05:20:57.324Z,63.53
2017-11-20T05:23:26.784Z,62.28
2017-11-20T05:25:55.475Z,62.13
2017-11-20T05:28:24.298Z,61.90
2017-11-20T05:30:53.156Z,62.02
2017-11-20T05:33:21.833Z,62.46
2017-11-20T05:35:50.656Z,62.59
2017-11-20T05:38:19.404Z,62.33
2017-11-20T05:40:48.199Z,61.77
2017-11-20T05:43:17.249Z,61.84
2017-11-20T05:45:46.205Z,61.88
2017-11-20T05:48:14.953Z,61.48
2017-11-20T05:50:44.335Z,61.62
2017-11-20T05:53:14.143Z,61.16
2017-11-20T05:55:43.133Z,60.90
2017-11-20T05:58:12.195Z,61.56
2017-11-20T06:00:40.931Z,61.78
2017-11-20T06:03:09.960Z,61.45
2017-11-20T06:05:38.909Z,61.43
2017-11-20T06:08:07.704Z,61.62
2017-11-20T06:10:36.494Z,61.28
2017-11-20T06:13:05.304Z,61.25
2017-11-20T06:15:34.169Z,61.61
2017-11-20T06:18:02.918Z,62.38
2017-11-20T06:20:31.794Z,62.32
2017-11-20T06:23:00.936Z,62.57
2017-11-20T06:25:29.613Z,62.51
2017-11-20T06:27:58.380Z,62.48
2017-11-20T06:30:27.453Z,63.81
2017-11-20T06:32:56.297Z,64.05
2017-11-20T06:35:25.083Z,63.94
2017-11-20T06:37:54.694Z,64.18
2017-11-20T06:40:23.552Z,64.20
2017-11-20T06:42:52.297Z,63.96
2017-11-20T06:45:21.076Z,63.72
2017-11-20T06:47:49.803Z,64.02
2017-11-20T06:50:18.782Z,65.00
2017-11-20T06:52:47.774Z,64.77
2017-11-20T06:55:16.532Z,64.48
2017-11-20T06:57:46.482Z,64.34
2017-11-20T07:00:16.986Z,65.09
2017-11-20T07:02:45.992Z,64.67
2017-11-20T07:05:14.891Z,64.92
2017-11-20T07:07:43.653Z,65.15
2017-11-20T07:10:12.991Z,65.51
2017-11-20T07:12:41.738Z,64.93
2017-11-20T07:15:11.631Z,64.69
2017-11-20T07:17:41.178Z,64.77
2017-11-20T07:20:10.740Z,65.12
2017-11-20T07:22:39.931Z,64.63
2017-11-20T07:25:20.554Z,64.82
2017-11-20T07:28:01.201Z,64.42
2017-11-20T07:30:41.902Z,63.89
2017-11-20T07:33:10.803Z,64.10
2017-11-20T07:38:59.732Z,62.71
2017-11-20T07:41:40.226Z,61.94
2017-11-20T07:44:09.143Z,61.34
2017-11-20T07:46:37.943Z,61.21
2017-11-20T07:49:06.891Z,60.91
2017-11-20T07:51:35.642Z,60.23
2017-11-20T07:54:05.198Z,59.44
2017-11-20T07:56:35.124Z,57.65
2017-11-20T07:59:03.866Z,57.60
2017-11-20T08:01:32.640Z,57.62
2017-11-20T08:04:01.441Z,57.83
2017-11-20T08:06:30.268Z,57.46
2017-11-20T08:08:58.981Z,56.01
2017-11-20T08:11:27.753Z,56.97
2017-11-20T08:13:56.918Z,56.33
2017-11-20T08:16:26.234Z,56.45
2017-11-20T08:18:56.954Z,56.64
2017-11-20T08:21:26.290Z,56.96
2017-11-20T08:23:55.050Z,56.33
2017-11-20T08:26:23.920Z,56.31
2017-11-20T08:28:52.785Z,56.28
2017-11-20T08:31:21.637Z,56.31
2017-11-20T08:33:51.136Z,56.23
2017-11-20T08:36:19.895Z,56.22
2017-11-20T08:38:48.898Z,56.39
2017-11-20T08:41:17.737Z,56.14
2017-11-20T08:43:46.448Z,55.33
2017-11-20T08:46:15.336Z,54.88
2017-11-20T08:48:44.248Z,54.36
2017-11-20T08:51:12.995Z,54.83
2017-11-20T08:53:41.937Z,53.74
2017-11-20T08:56:11.116Z,53.81
2017-11-20T08:58:39.879Z,54.32
2017-11-20T09:01:09.439Z,54.20
2017-11-20T09:03:38.100Z,54.44
2017-11-20T09:06:06.886Z,53.85
2017-11-20T09:08:35.704Z,53.22
2017-11-20T09:11:04.521Z,52.90
2017-11-20T09:13:33.585Z,53.23
2017-11-20T09:16:03.365Z,52.27
2017-11-20T09:18:32.683Z,52.05
2017-11-20T09:21:01.789Z,52.11
2017-11-20T09:23:31.072Z,52.42
2017-11-20T09:26:00.552Z,51.61
2017-11-20T09:28:30.175Z,51.43
2017-11-20T09:30:59.012Z,50.73
2017-11-20T09:33:27.721Z,50.81
2017-11-20T09:35:56.725Z,49.93
2017-11-20T09:38:25.554Z,48.73
2017-11-20T09:40:54.469Z,48.72
2017-11-20T09:43:24.239Z,47.36
2017-11-20T09:45:53.353Z,48.33
2017-11-20T09:48:22.072Z,48.18
2017-11-20T09:50:51.004Z,48.27
2017-11-20T09:53:19.943Z,47.64
2017-11-20T09:55:49.686Z,46.77
2017-11-20T09:58:18.524Z,46.24
2017-11-20T10:00:48.088Z,46.89
2017-11-20T10:03:17.045Z,43.99
2017-11-20T10:05:45.840Z,44.82
2017-11-20T10:08:14.952Z,44.00
2017-11-20T10:10:46.057Z,42.72
2017-11-20T10:13:15.152Z,43.56
2017-11-20T10:15:43.980Z,41.70
2017-11-20T10:18:12.853Z,40.40
2017-11-20T10:20:41.742Z,39.86
2017-11-20T10:23:10.739Z,39.08
2017-11-20T10:25:39.599Z,37.75
2017-11-20T10:28:08.456Z,38.64
2017-11-20T10:30:37.134Z,38.99
2017-11-20T10:33:06.070Z,38.41
2017-11-20T10:35:35.243Z,37.67
2017-11-20T10:38:04.101Z,35.77
2017-11-20T10:40:33.131Z,38.00
2017-11-20T10:43:02.352Z,36.44
2017-11-20T10:45:31.622Z,34.20
2017-11-20T10:48:00.586Z,34.05
2017-11-20T10:50:29.821Z,31.25
2017-11-20T10:52:58.553Z,30.39
2017-11-20T10:55:29.832Z,31.29
2017-11-20T10:57:58.855Z,31.27
2017-11-20T11:00:30.517Z,29.35
2017-11-20T11:02:59.268Z,30.37
2017-11-20T11:05:29.116Z,31.45
2017-11-20T11:07:58.516Z,31.94
2017-11-20T11:10:28.394Z,32.92
2017-11-20T11:12:57.807Z,31.15
2017-11-20T11:15:26.779Z,31.40
2017-11-20T11:17:55.778Z,31.49
2017-11-20T11:20:24.518Z,30.48
2017-11-20T11:22:53.402Z,29.81
2017-11-20T11:25:22.387Z,29.02
2017-11-20T11:27:51.362Z,28.89
2017-11-20T11:30:20.194Z,30.61
2017-11-20T11:32:49.359Z,31.35
2017-11-20T11:35:18.084Z,29.47
2017-11-20T11:37:47.729Z,29.90
2017-11-20T11:40:16.523Z,31.32
2017-11-20T11:42:45.587Z,32.53
2017-11-20T11:45:14.732Z,31.61
2017-11-20T11:47:43.966Z,31.75
2017-11-20T11:50:12.765Z,30.64
2017-11-20T11:52:42.406Z,31.55
2017-11-20T11:55:11.863Z,32.03
2017-11-20T11:57:40.925Z,31.50
2017-11-20T12:00:10.354Z,30.10
2017-11-20T12:02:39.342Z,31.12
2017-11-20T12:05:08.270Z,29.49
2017-11-20T12:07:37.567Z,30.25
2017-11-20T12:10:06.425Z,29.88
2017-11-20T12:12:36.076Z,29.23
2017-11-20T12:15:06.476Z,29.07
2017-11-20T12:17:36.263Z,27.95
2017-11-20T12:20:05.179Z,28.67
2017-11-20T12:22:34.108Z,28.41
2017-11-20T12:25:03.048Z,29.13
2017-11-20T12:27:32.732Z,28.10
2017-11-20T12:30:01.729Z,30.75
2017-11-20T12:32:30.863Z,29.27
2017-11-20T12:35:00.180Z,28.87
2017-11-20T12:37:29.114Z,29.03
2017-11-20T12:39:59.172Z,28.46
2017-11-20T12:42:29.267Z,29.35
2017-11-20T12:44:59.219Z,30.00
2017-11-20T12:47:29.219Z,28.60
2017-11-20T12:49:59.116Z,27.47
2017-11-20T12:52:27.962Z,29.84
2017-11-20T12:54:56.848Z,30.96
2017-11-20T12:57:25.933Z,31.32
2017-11-20T12:59:54.760Z,29.62
2017-11-20T13:02:23.959Z,30.85
2017-11-20T13:04:52.929Z,30.00
2017-11-20T13:07:21.860Z,30.57
2017-11-20T13:09:51.367Z,30.05
2017-11-20T13:12:20.900Z,30.58
2017-11-20T13:14:49.761Z,30.00
2017-11-20T13:17:19.617Z,31.05
2017-11-20T13:19:48.623Z,30.27
2017-11-20T13:22:18.538Z,29.96
2017-11-20T13:24:47.442Z,30.97
2017-11-20T13:27:16.290Z,29.90
2017-11-20T13:29:45.063Z,30.08
2017-11-20T13:32:14.086Z,29.78
2017-11-20T13:34:42.902Z,30.08
2017-11-20T13:37:11.689Z,30.29
2017-11-20T13:39:40.634Z,30.74
2017-11-20T13:42:09.458Z,30.87
2017-11-20T13:44:38.276Z,31.29
2017-11-20T13:47:07.136Z,30.79
2017-11-20T13:49:35.867Z,30.85
2017-11-20T13:52:04.966Z,30.62
2017-11-20T13:54:33.847Z,31.13
2017-11-20T13:57:03.597Z,32.77
2017-11-20T13:59:32.497Z,33.54
2017-11-20T14:02:01.663Z,33.13
2017-11-20T14:04:30.621Z,33.50
2017-11-20T14:06:59.592Z,33.36
2017-11-20T14:09:28.600Z,33.23
2017-11-20T14:11:57.555Z,34.43
2017-11-20T14:14:26.516Z,34.61
2017-11-20T14:16:55.850Z,34.69
2017-11-20T14:19:24.828Z,35.65
2017-11-20T14:21:53.828Z,35.46
2017-11-20T14:24:22.722Z,35.23
2017-11-20T14:26:51.673Z,34.82
2017-11-20T14:29:20.438Z,36.51
2017-11-20T14:31:49.727Z,37.05
2017-11-20T14:34:18.532Z,35.95
2017-11-20T14:36:47.485Z,36.15
2017-11-20T14:39:16.492Z,36.46
2017-11-20T14:41:45.506Z,36.06
2017-11-20T14:44:14.360Z,36.39
2017-11-20T14:46:43.271Z,35.72
2017-11-20T14:49:12.226Z,37.21
2017-11-20T14:51:45.492Z,36.88
2017-11-20T14:54:18.512Z,36.68
2017-11-20T14:56:47.485Z,40.54
2017-11-20T14:59:16.397Z,40.63
2017-11-20T15:01:46.205Z,41.61
2017-11-20T15:04:15.224Z,39.40
2017-11-20T15:06:44.068Z,39.12
2017-11-20T15:09:13.808Z,41.80
2017-11-20T15:11:43.518Z,40.69
2017-11-20T15:14:12.716Z,42.73
2017-11-20T15:16:42.664Z,42.68
2017-11-20T15:19:11.540Z,42.75
2017-11-20T15:21:40.400Z,44.26
2017-11-20T15:24:09.286Z,43.47
2017-11-20T15:26:39.050Z,45.03
2017-11-20T15:29:07.995Z,45.05
2017-11-20T15:31:36.898Z,45.07
2017-11-20T15:34:06.288Z,43.55
2017-11-20T15:36:35.251Z,47.16
2017-11-20T15:39:04.215Z,45.73
2017-11-20T15:41:34.014Z,45.72
2017-11-20T15:44:02.731Z,45.17
2017-11-20T15:46:31.499Z,42.14
2017-11-20T15:49:00.544Z,44.20
2017-11-20T15:51:31.043Z,42.94
2017-11-20T15:54:00.499Z,43.16
2017-11-20T15:56:30.488Z,42.73
2017-11-20T15:59:01.419Z,44.25
2017-11-20T16:01:30.823Z,43.83
2017-11-20T16:04:00.481Z,43.79
2017-11-20T16:06:30.363Z,45.42
2017-11-20T16:09:00.482Z,42.64
2017-11-20T16:11:31.091Z,45.54
2017-11-20T16:14:00.448Z,40.44
2017-11-20T16:16:31.255Z,42.72
2017-11-20T16:19:00.725Z,43.15
2017-11-20T16:21:29.581Z,39.50
2017-11-20T16:23:58.546Z,38.64
2017-11-20T16:26:27.443Z,41.21
2017-11-20T16:28:56.372Z,43.61
2017-11-20T16:31:25.205Z,44.26
2017-11-20T16:33:54.927Z,43.23
2017-11-20T16:36:24.586Z,43.91
2017-11-20T16:38:53.639Z,44.66
2017-11-20T16:41:22.932Z,44.88
2017-11-20T16:43:51.729Z,45.75
2017-11-20T16:46:20.517Z,48.77
2017-11-20T16:48:49.611Z,47.39
2017-11-20T16:51:18.691Z,45.54
2017-11-20T16:53:47.634Z,44.56
2017-11-20T16:56:16.662Z,46.06
2017-11-20T16:58:49.673Z,45.82
2017-11-20T17:04:23.132Z,48.06
2017-11-20T17:06:51.966Z,48.40
2017-11-20T17:09:20.850Z,49.95
2017-11-20T17:11:49.669Z,48.77
2017-11-20T17:14:18.612Z,49.92
2017-11-20T17:16:47.363Z,49.66
2017-11-20T17:19:16.224Z,48.83
2017-11-20T17:21:45.049Z,51.21
2017-11-20T17:24:13.786Z,50.67
2017-11-20T17:26:42.589Z,50.77
2017-11-20T17:29:11.633Z,49.78
2017-11-20T17:31:40.427Z,50.99
2017-11-20T17:34:09.168Z,52.43
2017-11-20T17:36:38.210Z,49.51
2017-11-20T17:39:07.247Z,50.71
2017-11-20T17:41:36.382Z,50.35
2017-11-20T17:44:06.969Z,52.13
2017-11-20T17:46:37.058Z,51.48
2017-11-20T17:49:06.490Z,50.45
2017-11-20T17:51:36.416Z,51.81
2017-11-20T17:54:07.169Z,50.07
2017-11-20T17:56:36.722Z,48.97
2017-11-20T17:59:06.827Z,49.69
2017-11-20T18:01:36.661Z,49.79
2017-11-20T18:04:06.525Z,48.02
2017-11-20T18:06:35.363Z,49.02
2017-11-20T18:09:04.667Z,51.44
2017-11-20T18:11:33.582Z,48.88
2017-11-20T18:14:03.542Z,47.27
2017-11-20T18:16:32.651Z,51.15
2017-11-20T18:19:01.627Z,52.31
2017-11-20T18:21:30.558Z,48.57
2017-11-20T18:23:59.598Z,47.70
2017-11-20T18:26:28.623Z,46.88
2017-11-20T18:28:57.627Z,47.46
2017-11-20T18:31:26.807Z,46.20
2017-11-20T18:33:55.559Z,45.46
2017-11-20T18:36:25.243Z,44.93
2017-11-20T18:38:54.230Z,46.23
2017-11-20T18:41:22.988Z,46.76
2017-11-20T18:43:51.983Z,49.37
2017-11-20T18:46:20.968Z,50.42
2017-11-20T18:48:49.769Z,51.89
2017-11-20T18:51:18.616Z,50.29
2017-11-20T18:53:49.122Z,49.63
2017-11-20T18:56:19.071Z,50.65
2017-11-20T18:58:49.167Z,49.99
2017-11-20T19:01:31.060Z,50.61
2017-11-20T19:04:11.757Z,50.09
2017-11-20T19:06:53.016Z,50.86
2017-11-20T19:09:21.911Z,50.08
2017-11-20T19:11:53.467Z,49.30
2017-11-20T19:14:23.807Z,48.95
2017-11-20T19:16:52.749Z,49.94
2017-11-20T19:19:21.471Z,52.09
2017-11-20T19:21:50.381Z,51.64
2017-11-20T19:24:19.600Z,53.48
2017-11-20T19:26:50.085Z,53.95
2017-11-20T19:29:18.994Z,53.28
2017-11-20T19:31:48.808Z,55.14
2017-11-20T19:34:19.596Z,53.96
2017-11-20T19:36:49.588Z,52.10
2017-11-20T19:39:18.968Z,52.85
2017-11-20T19:41:49.146Z,54.26
2017-11-20T19:44:19.685Z,52.67
2017-11-20T19:46:49.847Z,55.60
2017-11-20T19:49:19.192Z,54.98
2017-11-20T19:51:49.053Z,53.61
2017-11-20T19:54:19.483Z,52.59
2017-11-20T19:56:49.182Z,53.40
2017-11-20T19:59:19.319Z,55.53
2017-11-20T20:01:49.304Z,55.26
2017-11-20T20:04:19.882Z,53.52
2017-11-20T20:06:49.225Z,52.36
2017-11-20T20:09:21.124Z,54.75
2017-11-20T20:11:50.375Z,55.18
2017-11-20T20:14:27.130Z,54.97
2017-11-20T20:17:06.164Z,54.50
2017-11-20T20:19:35.052Z,55.26
2017-11-20T20:22:04.137Z,54.61
2017-11-20T20:24:33.305Z,56.06
2017-11-20T20:27:02.256Z,55.67
2017-11-20T20:29:31.174Z,55.69
2017-11-20T20:32:00.925Z,56.06
2017-11-20T20:34:29.958Z,56.73
2017-11-20T20:36:59.214Z,55.35
2017-11-20T20:39:28.284Z,56.98
2017-11-20T20:41:57.444Z,56.25
2017-11-20T20:44:26.664Z,56.28
2017-11-20T20:46:55.560Z,55.30
2017-11-20T20:49:24.925Z,56.01
2017-11-20T20:51:53.687Z,57.07
2017-11-20T20:54:22.394Z,56.61
2017-11-20T20:56:51.319Z,57.29
2017-11-20T20:59:20.196Z,57.88
2017-11-20T21:01:48.914Z,56.46
2017-11-20T21:04:18.791Z,55.96
2017-11-20T21:06:59.359Z,56.35
2017-11-20T21:09:30.450Z,57.05
2017-11-20T21:12:04.856Z,58.18
2017-11-20T21:14:33.606Z,57.48
2017-11-20T21:17:02.304Z,58.30
2017-11-20T21:19:31.436Z,57.37
2017-11-20T21:22:00.148Z,58.21
2017-11-20T21:24:28.902Z,57.60
2017-11-20T21:26:57.757Z,57.81
2017-11-20T21:29:26.936Z,58.19
2017-11-20T21:31:55.797Z,57.62
2017-11-20T21:34:25.489Z,59.29
2017-11-20T21:36:54.255Z,58.67
2017-11-20T21:39:22.973Z,58.46
2017-11-20T21:41:51.827Z,58.45
2017-11-20T21:44:20.764Z,58.40
2017-11-20T21:46:49.574Z,60.03
2017-11-20T21:49:18.514Z,58.92
2017-11-20T21:51:47.228Z,59.35
2017-11-20T21:54:15.994Z,59.18
2017-11-20T21:56:45.097Z,59.46
2017-11-20T21:59:13.944Z,60.68
2017-11-20T22:01:42.938Z,60.10
2017-11-20T22:04:12.083Z,60.70
2017-11-20T22:06:41.171Z,60.46
2017-11-20T22:09:10.187Z,61.40
2017-11-20T22:11:39.107Z,61.05
2017-11-20T22:14:07.788Z,61.20
2017-11-20T22:16:36.693Z,61.36
2017-11-20T22:19:05.731Z,61.58
2017-11-20T22:21:36.195Z,60.29
2017-11-20T22:24:05.416Z,59.71
2017-11-20T22:26:35.244Z,60.04
2017-11-20T22:29:04.272Z,61.12
2017-11-20T22:31:34.070Z,59.72
2017-11-20T22:34:03.504Z,61.25
2017-11-20T22:36:32.237Z,59.48
2017-11-20T22:39:01.877Z,59.86
2017-11-20T22:41:30.606Z,59.62
2017-11-20T22:44:00.215Z,59.67
2017-11-20T22:46:29.076Z,60.35
2017-11-20T22:48:58.006Z,60.10
2017-11-20T22:51:26.948Z,61.33
2017-11-20T22:53:55.632Z,61.55
2017-11-20T22:56:24.493Z,61.17
2017-11-20T22:58:53.247Z,60.46
2017-11-20T23:01:22.149Z,60.70
2017-11-20T23:03:51.028Z,61.10
2017-11-20T23:06:19.797Z,59.08
2017-11-20T23:08:48.642Z,60.54
2017-11-20T23:11:17.474Z,60.87
2017-11-20T23:13:46.724Z,60.90
2017-11-20T23:16:15.601Z,60.26
2017-11-20T23:18:44.312Z,61.16
2017-11-20T23:21:13.074Z,60.60
2017-11-20T23:23:41.971Z,61.06
2017-11-20T23:26:10.666Z,61.43
2017-11-20T23:28:39.427Z,60.40
2017-11-20T23:31:09.061Z,60.46
2017-11-20T23:33:37.963Z,60.61
2017-11-20T23:36:06.714Z,61.78
2017-11-20T23:38:35.650Z,61.71
2017-11-20T23:41:06.520Z,60.93
2017-11-20T23:43:36.773Z,63.14
2017-11-20T23:46:05.729Z,63.20
2017-11-20T23:48:34.445Z,61.88
2017-11-20T23:51:03.243Z,61.82
2017-11-20T23:53:35.150Z,61.01
2017-11-20T23:56:03.960Z,61.53
2017-11-20T23:58:32.742Z,62.68
